Terminal Aerodrome Forecast
Issued by NWS

Home | Current Version | Previous Version | Text Only | Print | Product List | Glossary On
Versions: 1 2 3 4 5 6 7 8 9 10 11 12 13 14
000
FTUS46 KPDT 222320
TAFRDM
TAF
KRDM 222320Z 2300/2324 21011KT P6SM SCT100
     FM230600 16007KT P6SM SCT050 BKN100
     FM231300 VRB04KT 4SM -SHSN BKN015 OVC030
     FM231900 34005KT P6SM VCSH SCT040 BKN090=

USA.gov is the U.S. government's official web portal to all federal, state and local government web resources and services.